Time;durP1;ratioP1;P1;durP2;ratioP2;P2;SDS_P1;SDS_P2;PMS_P1;PMS_P2;Temp;Humidity;BMP_temperature;BMP_pressure;BME280_temperature;BME280_humidity;BME280_pressure;Samples;Min_cycle;Max_cycle;Signal;HPM_P1;HPM_P2
2022/04/23 00:01:06;;;;;;;11.00;9.53;;;;;;;11.29;100.00;100518.78;1669824;85;21488;-59
2022/04/23 00:03:35;;;;;;;11.50;9.70;;;;;;;11.28;100.00;100517.64;1669945;85;21003;-60
2022/04/23 00:06:03;;;;;;;12.37;9.63;;;;;;;11.31;100.00;100519.39;1669684;85;21580;-60
2022/04/23 00:08:32;;;;;;;12.40;11.05;;;;;;;11.45;100.00;100519.08;1668862;85;21045;-68
2022/04/23 00:10:59;;;;;;;13.60;11.25;;;;;;;11.29;100.00;100514.87;1669383;85;21208;-62
2022/04/23 00:13:27;;;;;;;16.42;12.63;;;;;;;11.26;100.00;100515.22;1669227;85;21116;-59
2022/04/23 00:15:55;;;;;;;13.70;10.38;;;;;;;11.26;100.00;100517.02;1669558;85;20994;-59
2022/04/23 00:18:24;;;;;;;12.13;10.38;;;;;;;11.27;100.00;100518.14;1668646;85;21001;-69
2022/04/23 00:20:51;;;;;;;15.93;12.20;;;;;;;11.27;100.00;100509.00;1658743;85;21109;-60
2022/04/23 00:23:19;;;;;;;12.75;10.38;;;;;;;11.20;100.00;100507.61;1669567;85;21218;-59
2022/04/23 00:25:51;;;;;;;11.03;9.28;;;;;;;11.27;100.00;100507.70;1668737;85;21014;-60
2022/04/23 00:28:17;;;;;;;13.18;10.55;;;;;;;11.33;100.00;100510.91;1668944;85;21082;-71
2022/04/23 00:30:47;;;;;;;12.85;9.85;;;;;;;11.21;100.00;100505.80;1668990;85;21052;-59
2022/04/23 00:33:16;;;;;;;12.00;10.00;;;;;;;11.12;100.00;100513.42;1669501;85;21017;-59
2022/04/23 00:35:44;;;;;;;10.48;8.98;;;;;;;11.36;100.00;100507.09;1669594;85;21290;-59
2022/04/23 00:38:11;;;;;;;13.18;8.60;;;;;;;11.26;100.00;100515.72;1669455;85;20935;-60
2022/04/23 00:40:40;;;;;;;9.25;8.13;;;;;;;11.12;100.00;100512.11;1669121;85;21295;-61
2022/04/23 00:43:12;;;;;;;10.05;7.58;;;;;;;11.21;100.00;100511.02;1669376;85;21221;-60
2022/04/23 00:45:38;;;;;;;9.25;8.13;;;;;;;11.27;100.00;100502.48;1663053;85;21061;-59
2022/04/23 00:48:07;;;;;;;11.95;9.48;;;;;;;11.15;100.00;100506.05;1668789;85;20947;-61
2022/04/23 00:50:36;;;;;;;10.53;8.55;;;;;;;11.12;100.00;100512.92;1667003;85;21065;-66
2022/04/23 00:53:05;;;;;;;10.03;8.28;;;;;;;11.04;100.00;100520.03;1661285;85;21370;-60
2022/04/23 00:55:34;;;;;;;11.55;8.28;;;;;;;11.00;100.00;100515.67;1669307;85;21047;-59
2022/04/23 00:58:02;;;;;;;9.33;8.30;;;;;;;10.93;100.00;100512.95;1669720;85;21136;-63
2022/04/23 01:00:29;;;;;;;11.30;8.88;;;;;;;10.87;100.00;100514.16;1668967;85;21365;-71
2022/04/23 01:02:57;;;;;;;10.00;7.92;;;;;;;10.93;100.00;100511.66;1668828;84;21096;-60
2022/04/23 01:05:26;;;;;;;8.85;7.67;;;;;;;11.07;100.00;100509.25;1669514;85;21006;-63
2022/04/23 01:07:54;;;;;;;10.75;8.00;;;;;;;11.03;100.00;100519.23;1669426;85;21623;-60
2022/04/23 01:10:23;;;;;;;9.75;7.90;;;;;;;11.06;100.00;100512.35;1668972;85;20982;-61
2022/04/23 01:12:53;;;;;;;12.55;8.80;;;;;;;11.26;100.00;100518.33;1659469;85;21724;-61
2022/04/23 01:15:24;;;;;;;8.88;7.87;;;;;;;11.28;100.00;100518.95;1669708;85;21047;-61
2022/04/23 01:17:51;;;;;;;9.30;7.35;;;;;;;11.39;100.00;100516.69;1670451;85;21009;-60
2022/04/23 01:20:20;;;;;;;9.63;6.72;;;;;;;11.31;100.00;100523.80;1668560;85;20927;-73
2022/04/23 01:22:47;;;;;;;15.88;12.00;;;;;;;11.30;100.00;100524.80;1670226;85;22036;-59
2022/04/23 01:25:14;;;;;;;11.60;9.00;;;;;;;11.20;100.00;100519.84;1670122;85;21163;-61
2022/04/23 01:27:47;;;;;;;9.35;8.10;;;;;;;11.03;100.00;100528.86;1670197;85;21047;-61
2022/04/23 01:30:14;;;;;;;7.95;7.08;;;;;;;10.89;100.00;100528.65;1669889;85;21473;-71
2022/04/23 01:32:43;;;;;;;8.68;6.70;;;;;;;10.81;100.00;100522.72;1663901;85;21412;-61
2022/04/23 01:35:10;;;;;;;9.13;7.53;;;;;;;10.66;100.00;100518.27;1670441;85;21488;-63
2022/04/23 01:37:39;;;;;;;9.98;7.80;;;;;;;10.70;100.00;100521.34;1669916;85;20991;-62
2022/04/23 01:40:08;;;;;;;9.28;7.50;;;;;;;10.80;100.00;100515.88;1669567;85;21077;-71
2022/04/23 01:42:35;;;;;;;9.25;7.92;;;;;;;10.95;100.00;100514.10;1668768;85;21079;-67
2022/04/23 01:45:02;;;;;;;10.40;8.28;;;;;;;10.93;100.00;100514.76;1669492;85;21140;-60
2022/04/23 01:47:29;;;;;;;10.93;8.65;;;;;;;10.93;100.00;100517.37;1669690;85;20955;-59
2022/04/23 01:49:56;;;;;;;10.18;8.15;;;;;;;10.88;100.00;100515.80;1669538;85;21232;-62
2022/04/23 01:52:24;;;;;;;10.30;8.50;;;;;;;10.81;100.00;100514.39;1669371;85;21015;-65
2022/04/23 01:54:51;;;;;;;10.20;7.95;;;;;;;10.91;100.00;100512.34;1658066;85;21376;-59
2022/04/23 01:57:18;;;;;;;10.00;8.55;;;;;;;10.90;100.00;100508.09;1669287;85;21005;-60
2022/04/23 01:59:45;;;;;;;9.48;7.80;;;;;;;10.86;100.00;100508.64;1669904;85;21085;-60
2022/04/23 02:02:13;;;;;;;9.00;7.30;;;;;;;10.90;100.00;100504.68;1669818;85;21169;-73
2022/04/23 02:04:41;;;;;;;9.70;7.83;;;;;;;10.81;100.00;100504.45;1668781;84;20867;-65
2022/04/23 02:07:09;;;;;;;9.55;7.87;;;;;;;10.66;100.00;100503.13;1669492;85;21496;-63
2022/04/23 02:09:37;;;;;;;8.20;6.50;;;;;;;10.64;100.00;100498.58;1669243;85;21948;-62
2022/04/23 02:12:05;;;;;;;9.73;8.45;;;;;;;10.55;100.00;100493.12;1669716;85;21074;-61
2022/04/23 02:14:35;;;;;;;10.32;7.83;;;;;;;10.41;100.00;100495.52;1669772;85;21284;-64
2022/04/23 02:17:03;;;;;;;10.38;8.30;;;;;;;10.34;100.00;100498.53;1669172;85;21105;-61
2022/04/23 02:19:33;;;;;;;10.10;7.87;;;;;;;10.34;100.00;100495.09;1669189;85;21710;-60
2022/04/23 02:22:03;;;;;;;10.65;9.08;;;;;;;10.32;100.00;100498.37;1669463;85;21061;-61
2022/04/23 02:24:30;;;;;;;10.20;8.75;;;;;;;10.34;100.00;100510.72;1668880;85;21124;-60
2022/04/23 02:26:57;;;;;;;11.65;9.30;;;;;;;10.27;100.00;100504.13;1668365;85;22303;-62
2022/04/23 02:29:25;;;;;;;9.70;8.43;;;;;;;9.97;100.00;100501.36;1668827;85;21124;-62
2022/04/23 02:31:54;;;;;;;10.70;8.18;;;;;;;10.07;100.00;100502.42;1669386;85;20978;-61
2022/04/23 02:34:22;;;;;;;9.58;7.95;;;;;;;10.09;100.00;100504.38;1668487;85;20998;-65
2022/04/23 02:36:50;;;;;;;11.48;9.10;;;;;;;10.19;100.00;100509.33;1669150;85;21571;-61
2022/04/23 02:39:17;;;;;;;10.55;9.05;;;;;;;10.18;100.00;100511.13;1668769;85;21174;-66
2022/04/23 02:41:44;;;;;;;11.00;8.90;;;;;;;10.38;100.00;100504.17;1668790;85;21101;-62
2022/04/23 02:44:15;;;;;;;11.03;7.92;;;;;;;10.36;100.00;100508.27;1669543;85;20943;-74
2022/04/23 02:46:43;;;;;;;11.43;8.85;;;;;;;10.52;100.00;100503.41;1669177;85;21112;-59
2022/04/23 02:49:10;;;;;;;13.15;9.60;;;;;;;10.64;100.00;100505.09;1668907;85;21002;-72
2022/04/23 02:51:38;;;;;;;10.85;8.73;;;;;;;10.80;100.00;100508.06;1669058;85;21627;-59
2022/04/23 02:54:06;;;;;;;9.60;7.78;;;;;;;11.22;100.00;100506.64;1668902;85;21069;-61
2022/04/23 02:56:34;;;;;;;10.08;8.25;;;;;;;11.58;100.00;100508.78;1669138;85;21076;-61
2022/04/23 02:59:02;;;;;;;8.98;7.83;;;;;;;12.09;100.00;100497.50;1669378;85;21069;-68
2022/04/23 03:01:30;;;;;;;8.43;7.30;;;;;;;12.31;100.00;100491.74;1668920;85;21035;-60
2022/04/23 03:03:59;;;;;;;8.50;6.47;;;;;;;12.55;100.00;100497.89;1668717;84;20970;-60
2022/04/23 03:06:30;;;;;;;6.95;6.25;;;;;;;12.55;100.00;100499.20;1690598;83;21432;-62
2022/04/23 03:09:03;;;;;;;11.12;6.87;;;;;;;12.69;100.00;100496.66;1690698;83;21016;-59
2022/04/23 03:11:31;;;;;;;10.53;6.95;;;;;;;12.64;100.00;100490.70;1690072;84;21015;-59
2022/04/23 03:13:59;;;;;;;8.48;6.78;;;;;;;12.62;100.00;100497.94;1689395;84;21074;-60
2022/04/23 03:16:31;;;;;;;8.88;7.62;;;;;;;12.56;100.00;100495.58;1690127;84;21276;-63
2022/04/23 03:18:57;;;;;;;9.10;6.97;;;;;;;12.64;100.00;100498.55;1690483;84;21063;-73
2022/04/23 03:21:26;;;;;;;8.85;6.72;;;;;;;12.90;100.00;100489.56;1690673;83;22312;-61
2022/04/23 03:23:54;;;;;;;7.50;6.22;;;;;;;13.31;100.00;100482.26;1690427;83;21109;-60
2022/04/23 03:26:21;;;;;;;7.10;5.85;;;;;;;13.63;100.00;100482.56;1690366;84;21130;-61
2022/04/23 03:28:49;;;;;;;7.93;6.40;;;;;;;14.42;100.00;100487.61;1690457;84;21188;-67
2022/04/23 03:31:17;;;;;;;7.57;6.10;;;;;;;15.30;100.00;100481.00;1690060;84;21155;-60
2022/04/23 03:33:45;;;;;;;9.27;6.37;;;;;;;16.11;100.00;100474.81;1689793;84;21389;-66
2022/04/23 03:36:13;;;;;;;8.60;6.83;;;;;;;17.00;100.00;100472.27;1690655;83;21170;-61
2022/04/23 03:38:42;;;;;;;9.27;7.20;;;;;;;17.94;100.00;100466.11;1691214;83;21269;-61
2022/04/23 03:41:09;;;;;;;9.63;7.73;;;;;;;18.65;92.18;100466.97;1690318;83;21799;-62
2022/04/23 03:43:37;;;;;;;8.87;7.67;;;;;;;19.36;79.40;100470.30;1690121;84;21709;-67
2022/04/23 03:46:05;;;;;;;8.60;7.70;;;;;;;20.30;67.98;100463.95;1690666;83;21164;-62
2022/04/23 03:48:34;;;;;;;7.50;6.57;;;;;;;21.14;59.46;100459.82;1690333;84;21058;-65
2022/04/23 03:51:01;;;;;;;7.83;7.03;;;;;;;21.65;55.52;100456.91;1690182;83;21035;-64
2022/04/23 03:53:30;;;;;;;8.27;7.40;;;;;;;22.16;52.58;100450.74;1690310;83;21029;-64
2022/04/23 03:55:57;;;;;;;9.33;7.90;;;;;;;22.69;48.84;100443.61;1690404;84;21277;-62
2022/04/23 03:58:25;;;;;;;9.10;7.93;;;;;;;23.21;47.25;100446.73;1690772;83;21089;-65
2022/04/23 04:00:54;;;;;;;9.90;8.90;;;;;;;23.50;45.63;100444.95;1679739;84;21026;-62
2022/04/23 04:03:23;;;;;;;8.20;7.03;;;;;;;24.14;43.92;100444.98;1690659;83;21026;-67
2022/04/23 04:05:52;;;;;;;8.97;8.07;;;;;;;24.54;42.30;100439.32;1691083;83;21812;-62
2022/04/23 04:08:21;;;;;;;8.33;7.50;;;;;;;24.94;41.00;100435.71;1690667;83;21019;-62
2022/04/23 04:10:48;;;;;;;7.07;6.37;;;;;;;25.46;39.60;100429.84;1689707;83;21607;-64
2022/04/23 04:13:15;;;;;;;7.30;6.20;;;;;;;25.73;38.58;100428.56;1690343;84;21635;-73
2022/04/23 04:15:44;;;;;;;7.80;7.00;;;;;;;26.01;37.15;100431.55;1690249;83;21026;-60
2022/04/23 04:18:12;;;;;;;7.07;6.37;;;;;;;26.19;36.51;100432.18;1690711;83;21211;-61
2022/04/23 04:20:40;;;;;;;6.93;6.07;;;;;;;26.40;36.39;100440.25;1690880;83;20936;-65
2022/04/23 04:23:10;;;;;;;6.97;6.20;;;;;;;26.50;35.55;100435.34;1690132;84;21065;-60
2022/04/23 04:25:38;;;;;;;7.70;6.63;;;;;;;26.79;35.32;100440.63;1690320;83;21047;-63
2022/04/23 04:28:07;;;;;;;6.77;6.03;;;;;;;26.90;34.44;100446.10;1690727;83;21133;-62
2022/04/23 04:33:23;;;;;;;7.93;7.13;;;;;;;27.24;33.96;100447.00;1689887;84;21080;-65
2022/04/23 04:35:50;;;;;;;6.87;6.17;;;;;;;27.39;33.85;100452.95;1679717;83;21447;-60
2022/04/23 04:38:17;;;;;;;7.33;6.33;;;;;;;27.54;33.45;100460.48;1691080;83;21101;-61
2022/04/23 04:40:46;;;;;;;7.90;7.10;;;;;;;27.75;33.06;100461.79;1689946;83;21038;-61
2022/04/23 04:43:14;;;;;;;7.80;7.03;;;;;;;27.87;32.61;100464.80;1689732;84;21173;-64
2022/04/23 04:45:41;;;;;;;7.70;6.97;;;;;;;27.93;32.36;100467.41;1690110;84;20998;-62
2022/04/23 04:48:10;;;;;;;8.20;6.87;;;;;;;28.08;32.20;100456.43;1691005;83;21008;-61
2022/04/23 04:50:37;;;;;;;7.83;7.03;;;;;;;28.18;32.19;100449.52;1690008;84;20960;-60
2022/04/23 04:53:04;;;;;;;7.35;6.65;;;;;;;28.45;31.77;100450.67;1690551;83;21607;-69
2022/04/23 04:55:34;;;;;;;8.05;7.25;;;;;;;28.69;31.51;100441.89;1690079;84;21303;-60
2022/04/23 04:58:01;;;;;;;8.48;7.67;;;;;;;28.78;31.18;100444.09;1690130;84;21325;-62
2022/04/23 05:00:30;;;;;;;8.00;6.90;;;;;;;29.41;30.01;100436.33;1690393;83;21150;-61
2022/04/23 05:02:57;;;;;;;7.83;7.03;;;;;;;29.80;29.51;100437.00;1690523;83;21347;-59
2022/04/23 05:05:26;;;;;;;8.18;7.37;;;;;;;29.93;29.11;100444.73;1689361;83;21078;-61
2022/04/23 05:07:54;;;;;;;7.72;7.03;;;;;;;29.91;29.19;100442.36;1687131;83;21166;-60
2022/04/23 05:10:23;;;;;;;9.55;6.65;;;;;;;30.04;28.97;100441.50;1686105;83;21032;-65
2022/04/23 05:12:51;;;;;;;8.53;7.20;;;;;;;30.41;28.47;100444.03;1692241;82;21095;-59
2022/04/23 05:15:18;;;;;;;7.97;7.20;;;;;;;30.57;28.62;100453.80;1680975;83;21019;-61
2022/04/23 05:17:47;;;;;;;7.92;7.12;;;;;;;30.67;27.88;100460.25;1686829;83;21607;-58
2022/04/23 05:20:15;;;;;;;8.78;7.83;;;;;;;30.96;27.92;100460.51;1686307;84;21019;-60
2022/04/23 05:22:43;;;;;;;8.38;7.58;;;;;;;31.13;27.40;100454.33;1687357;83;21082;-58
2022/04/23 05:25:10;;;;;;;8.95;7.47;;;;;;;31.33;27.06;100459.69;1687020;83;21480;-71
2022/04/23 05:27:39;;;;;;;8.53;7.72;;;;;;;31.35;27.13;100455.32;1687290;83;21094;-60
2022/04/23 05:30:09;;;;;;;8.08;7.28;;;;;;;30.80;27.33;100454.00;1686868;83;21063;-61
2022/04/23 05:32:36;;;;;;;8.53;7.72;;;;;;;31.01;27.36;100448.78;1686887;83;21182;-70
2022/04/23 05:35:04;;;;;;;8.13;7.33;;;;;;;31.22;27.17;100452.45;1686072;85;20975;-69
2022/04/23 05:37:32;;;;;;;8.60;7.80;;;;;;;31.52;26.45;100452.62;1686582;85;21169;-60
2022/04/23 05:40:01;;;;;;;8.58;7.72;;;;;;;31.46;26.34;100449.85;1687149;83;21062;-60
2022/04/23 05:42:29;;;;;;;8.25;7.42;;;;;;;31.28;26.07;100449.03;1686756;85;21395;-58
2022/04/23 05:44:58;;;;;;;10.00;7.72;;;;;;;31.20;26.39;100450.61;1685603;85;20959;-59
2022/04/23 05:47:25;;;;;;;8.75;7.10;;;;;;;31.32;27.15;100443.83;1687277;83;21500;-61
2022/04/23 05:49:54;;;;;;;6.47;5.53;;;;;;;31.59;26.79;100441.34;1687092;85;21094;-58
2022/04/23 05:52:22;;;;;;;7.92;7.17;;;;;;;31.72;26.46;100445.21;1687309;83;21106;-59
2022/04/23 05:54:49;;;;;;;7.70;6.90;;;;;;;31.85;25.78;100441.29;1686920;85;21016;-64
2022/04/23 05:57:18;;;;;;;6.50;5.90;;;;;;;31.86;26.02;100437.50;1686860;83;21059;-63
2022/04/23 05:59:46;;;;;;;6.65;5.97;;;;;;;31.97;26.37;100439.56;1687455;83;21376;-58
2022/04/23 06:02:15;;;;;;;6.75;5.90;;;;;;;32.02;26.79;100435.10;1686504;85;21122;-60
2022/04/23 06:04:45;;;;;;;6.12;5.53;;;;;;;32.45;25.86;100431.66;1686368;85;21068;-59
2022/04/23 06:07:14;;;;;;;7.75;6.47;;;;;;;32.75;25.19;100426.81;1686507;83;20936;-68
2022/04/23 06:09:43;;;;;;;7.62;6.92;;;;;;;32.77;25.10;100432.12;1686191;84;22250;-58
2022/04/23 06:12:10;;;;;;;6.37;5.72;;;;;;;32.99;24.83;100421.56;1687055;83;21368;-58
2022/04/23 06:14:37;;;;;;;6.05;5.47;;;;;;;33.12;24.77;100421.88;1686917;83;21039;-57
2022/04/23 06:17:10;;;;;;;5.92;5.33;;;;;;;33.13;24.35;100425.36;1686882;83;20963;-61
2022/04/23 06:19:37;;;;;;;4.95;4.45;;;;;;;32.90;24.94;100424.88;1685593;85;21086;-59
2022/04/23 06:22:05;;;;;;;5.47;4.85;;;;;;;32.70;24.19;100427.80;1686627;85;21960;-59
2022/04/23 06:24:34;;;;;;;6.25;4.55;;;;;;;32.30;24.72;100430.05;1687323;83;21052;-57
2022/04/23 06:27:01;;;;;;;4.58;4.12;;;;;;;32.44;24.98;100431.44;1686752;85;21089;-65
2022/04/23 06:29:30;;;;;;;5.40;4.60;;;;;;;32.78;24.81;100423.47;1686396;83;21011;-58
2022/04/23 06:31:59;;;;;;;6.03;5.42;;;;;;;33.20;24.53;100422.13;1686759;83;21058;-57
2022/04/23 06:34:27;;;;;;;6.20;5.37;;;;;;;33.68;24.15;100416.67;1685724;85;21548;-58
2022/04/23 06:36:55;;;;;;;5.45;4.75;;;;;;;33.75;23.40;100422.31;1685946;85;21569;-61
2022/04/23 06:43:44;;;;;;;5.00;4.33;;;;;;;29.72;28.12;100425.10;1781116;78;28051;-58
2022/04/23 06:46:12;;;;;;;4.55;3.42;;;;;;;32.32;24.85;100419.74;1753232;81;21568;-60
2022/04/23 06:48:41;;;;;;;5.17;4.35;;;;;;;32.49;25.16;100421.58;1753150;81;22290;-63
2022/04/23 06:51:08;;;;;;;4.55;4.15;;;;;;;32.79;24.85;100414.23;1753367;81;21035;-57
2022/04/23 06:53:38;;;;;;;6.28;5.00;;;;;;;32.84;25.01;100423.48;1753959;81;20928;-58
2022/04/23 06:56:06;;;;;;;5.50;4.30;;;;;;;33.15;24.56;100421.22;1753836;81;22030;-56
2022/04/23 06:58:33;;;;;;;4.12;3.02;;;;;;;33.52;24.10;100422.71;1753506;81;21528;-66
2022/04/23 07:01:02;;;;;;;4.97;4.15;;;;;;;33.40;23.89;100425.35;1753716;81;22431;-57
2022/04/23 07:03:29;;;;;;;4.55;3.80;;;;;;;33.35;24.26;100429.63;1753138;81;21030;-66
2022/04/23 07:05:56;;;;;;;4.78;3.75;;;;;;;33.33;23.64;100421.83;1753487;81;21022;-57
2022/04/23 07:08:25;;;;;;;6.08;4.50;;;;;;;33.31;23.41;100420.04;1753813;81;20951;-58
2022/04/23 07:10:54;;;;;;;4.42;3.60;;;;;;;32.96;23.93;100409.28;1753435;80;21057;-58
2022/04/23 07:13:21;;;;;;;3.85;3.37;;;;;;;32.81;24.03;100407.40;1753608;81;21307;-57
2022/04/23 07:15:50;;;;;;;4.22;3.42;;;;;;;32.79;23.98;100412.33;1753028;81;21046;-57
2022/04/23 07:18:18;;;;;;;4.80;3.72;;;;;;;33.09;23.95;100413.64;1753387;81;21359;-60
2022/04/23 07:20:46;;;;;;;4.92;3.90;;;;;;;33.28;24.02;100411.80;1753693;81;22237;-57
2022/04/23 07:26:01;;;;;;;3.27;2.67;;;;;;;33.55;21.48;100409.89;1753254;81;21345;-59
2022/04/23 07:28:28;;;;;;;3.20;2.80;;;;;;;32.50;22.55;100423.14;1752691;81;21023;-60
2022/04/23 07:30:56;;;;;;;3.33;2.52;;;;;;;31.56;23.27;100414.50;1753441;81;21511;-58
2022/04/23 07:38:55;;;;;;;4.78;3.40;;;;;;;29.98;25.52;100413.70;1753239;81;21249;-68
2022/04/23 07:41:24;;;;;;;3.83;3.17;;;;;;;29.64;25.68;100408.94;1752932;81;21549;-58
2022/04/23 07:43:52;;;;;;;4.15;3.25;;;;;;;29.43;26.06;100411.28;1741308;81;20972;-58
2022/04/23 07:46:19;;;;;;;4.40;3.42;;;;;;;28.89;26.26;100414.38;1740037;81;21034;-59
2022/04/23 07:48:48;;;;;;;4.90;3.52;;;;;;;28.52;26.79;100408.16;1740410;82;21009;-57
2022/04/23 07:51:16;;;;;;;3.80;3.13;;;;;;;28.35;27.00;100419.47;1739518;82;21139;-58
2022/04/23 07:53:43;;;;;;;4.33;3.30;;;;;;;28.10;27.60;100412.69;1739782;81;21409;-61
2022/04/23 07:56:12;;;;;;;4.50;3.10;;;;;;;27.98;27.50;100415.06;1740142;81;21062;-58
2022/04/23 07:58:39;;;;;;;3.20;2.90;;;;;;;27.75;27.62;100406.87;1739562;82;21000;-57
2022/04/23 08:01:07;;;;;;;4.40;3.00;;;;;;;27.57;27.63;100414.38;1739449;82;21040;-59
2022/04/23 08:03:35;;;;;;;5.40;3.13;;;;;;;27.35;27.90;100416.33;1740063;81;21518;-60
2022/04/23 08:06:03;;;;;;;4.93;3.27;;;;;;;27.22;28.58;100411.17;1739471;81;21051;-59
2022/04/23 08:08:31;;;;;;;4.00;2.87;;;;;;;26.95;28.80;100404.31;1740004;81;21024;-58
2022/04/23 08:10:58;;;;;;;4.07;2.90;;;;;;;26.68;29.05;100407.07;1739980;82;20945;-58
2022/04/23 08:13:28;;;;;;;5.50;3.37;;;;;;;26.64;29.69;100406.84;1739452;81;20972;-61
2022/04/23 08:15:55;;;;;;;4.07;2.57;;;;;;;26.66;29.94;100406.55;1739549;81;21873;-59
2022/04/23 08:18:23;;;;;;;4.77;2.97;;;;;;;26.92;29.62;100406.47;1739920;82;21095;-59
2022/04/23 08:20:50;;;;;;;4.37;2.80;;;;;;;27.44;29.24;100406.56;1739936;82;20980;-59
2022/04/23 08:23:19;;;;;;;4.47;3.27;;;;;;;27.78;28.16;100406.30;1739686;81;21549;-59
2022/04/23 08:25:47;;;;;;;3.90;2.87;;;;;;;27.94;28.09;100396.66;1739260;82;21065;-60
2022/04/23 08:31:03;;;;;;;4.13;3.00;;;;;;;28.12;27.71;100394.45;1738936;81;20996;-59
2022/04/23 08:36:19;;;;;;;4.93;3.40;;;;;;;28.15;27.86;100396.54;1739872;82;20972;-61
2022/04/23 08:38:48;;;;;;;3.63;2.70;;;;;;;28.14;27.69;100394.92;1739572;81;21506;-60
2022/04/23 08:41:17;;;;;;;4.47;3.00;;;;;;;28.11;28.03;100399.02;1739479;81;21059;-59
2022/04/23 08:43:45;;;;;;;3.93;3.30;;;;;;;27.97;28.17;100396.06;1740450;81;21050;-63
2022/04/23 08:46:14;;;;;;;4.67;3.37;;;;;;;27.84;28.51;100393.08;1740013;82;21554;-58
2022/04/23 08:48:42;;;;;;;4.37;2.90;;;;;;;27.54;28.54;100393.02;1739542;82;21557;-59
2022/04/23 08:51:12;;;;;;;5.23;3.40;;;;;;;27.48;28.83;100388.03;1739573;81;21605;-59
2022/04/23 08:53:40;;;;;;;3.25;2.77;;;;;;;27.45;29.04;100392.63;1740323;82;21149;-63
2022/04/23 08:56:09;;;;;;;3.93;2.50;;;;;;;27.53;28.82;100391.95;1740041;82;21040;-61
2022/04/23 08:58:39;;;;;;;4.57;2.70;;;;;;;27.39;28.53;100395.40;1739656;81;21507;-65
2022/04/23 09:01:08;;;;;;;4.23;2.90;;;;;;;27.03;28.84;100394.30;1740107;81;21455;-59
2022/04/23 09:03:37;;;;;;;6.77;3.67;;;;;;;27.05;28.77;100397.47;1740011;81;21060;-58
2022/04/23 09:06:04;;;;;;;4.93;2.57;;;;;;;27.23;28.65;100390.55;1740317;81;21136;-59
2022/04/23 09:08:33;;;;;;;4.07;2.47;;;;;;;27.43;28.11;100388.09;1739978;81;21556;-68
2022/04/23 09:11:02;;;;;;;3.30;2.50;;;;;;;27.70;27.91;100374.81;1739714;81;21464;-58
2022/04/23 09:13:31;;;;;;;3.97;2.80;;;;;;;28.15;27.58;100377.77;1740223;81;20991;-59
2022/04/23 09:24:48;;;;;;;4.45;3.55;;;;;;;28.85;26.02;100359.19;1702997;83;21046;-58
2022/04/23 09:27:15;;;;;;;5.50;3.33;;;;;;;28.63;26.72;100365.84;1704848;84;20944;-57
2022/04/23 09:29:59;;;;;;;3.63;2.60;;;;;;;28.08;26.97;100365.31;1703633;84;20940;-68
2022/04/23 09:32:29;;;;;;;3.30;2.30;;;;;;;27.87;26.95;100376.39;1704189;84;20977;-57
2022/04/23 09:35:11;;;;;;;3.10;2.30;;;;;;;27.82;26.93;100377.05;1704348;84;21505;-57
2022/04/23 09:40:27;;;;;;;4.20;3.07;;;;;;;28.44;26.00;100355.23;1704808;84;21018;-58
2022/04/23 09:43:03;;;;;;;5.63;4.40;;;;;;;28.89;26.28;100345.95;1704605;83;21282;-68
2022/04/23 09:45:33;;;;;;;5.97;4.03;;;;;;;29.30;26.79;100343.13;1704784;84;21212;-58
2022/04/23 09:48:17;;;;;;;5.37;2.90;;;;;;;29.83;25.45;100338.86;1704807;84;21023;-60
2022/04/23 09:50:44;;;;;;;4.85;2.75;;;;;;;29.80;25.36;100344.30;1739856;81;21134;-60
2022/04/23 09:53:19;;;;;;;3.83;2.43;;;;;;;29.43;24.73;100332.85;1691516;80;21661;-58
2022/04/23 09:55:51;;;;;;;4.10;2.50;;;;;;;29.17;24.76;100331.38;1692158;84;20970;-59
2022/04/23 09:58:18;;;;;;;4.15;3.00;;;;;;;28.81;25.09;100332.72;1672988;84;22085;-60
2022/04/23 10:00:47;;;;;;;5.43;3.43;;;;;;;28.61;25.55;100325.37;1690910;84;21540;-59
2022/04/23 10:03:15;;;;;;;4.25;3.35;;;;;;;28.64;25.65;100334.71;1692094;84;21400;-58
2022/04/23 10:05:48;;;;;;;5.07;3.50;;;;;;;28.39;25.82;100333.36;1692303;84;21224;-58
2022/04/23 10:08:17;;;;;;;5.67;4.07;;;;;;;28.39;26.17;100333.91;1692206;84;21085;-58
2022/04/23 10:10:51;;;;;;;4.80;3.10;;;;;;;28.38;26.40;100337.69;1691410;84;21265;-59
2022/04/23 10:13:19;;;;;;;4.30;3.03;;;;;;;28.23;26.14;100339.55;1692576;84;21034;-59
2022/04/23 10:15:47;;;;;;;5.47;2.83;;;;;;;28.24;26.33;100338.45;1692489;84;21484;-59
2022/04/23 10:18:15;;;;;;;3.90;3.17;;;;;;;28.43;26.00;100330.31;1692173;84;21078;-59
2022/04/23 10:20:54;;;;;;;4.43;2.90;;;;;;;28.36;25.34;100333.37;1691164;84;21532;-66
2022/04/23 10:23:46;;;;;;;3.77;2.73;;;;;;;28.39;25.51;100333.91;1692659;83;21512;-59
2022/04/23 10:26:39;;;;;;;5.80;3.20;;;;;;;28.46;25.30;100326.25;1690966;84;21118;-60
2022/04/23 10:29:09;;;;;;;4.37;2.90;;;;;;;28.19;25.50;100322.48;1690519;84;21015;-59
2022/04/23 10:31:38;;;;;;;3.60;2.50;;;;;;;28.07;25.72;100327.53;1691501;84;20971;-64
2022/04/23 10:34:27;;;;;;;4.80;3.23;;;;;;;28.23;25.77;100320.00;1690900;84;21938;-62
2022/04/23 10:37:18;;;;;;;6.87;3.87;;;;;;;28.13;26.08;100319.09;1675415;84;22638;-59
2022/04/23 10:39:58;;;;;;;3.90;2.90;;;;;;;27.73;26.31;100311.28;1667068;84;21053;-60
2022/04/23 10:42:27;;;;;;;3.80;2.40;;;;;;;27.73;26.55;100298.41;1687526;84;21105;-59
2022/04/23 10:44:57;;;;;;;3.60;2.43;;;;;;;28.17;26.10;100292.48;1691361;84;21034;-60
2022/04/23 10:47:34;;;;;;;3.53;2.20;;;;;;;28.60;25.88;100287.58;1691085;84;21519;-59
2022/04/23 10:50:21;;;;;;;5.70;3.00;;;;;;;29.13;25.36;100295.48;1691814;84;21579;-59
2022/04/23 10:52:50;;;;;;;3.43;2.13;;;;;;;29.49;24.30;100289.22;1705968;83;21086;-61
2022/04/23 10:55:18;;;;;;;3.73;2.20;;;;;;;29.70;23.78;100278.20;1716952;83;21449;-65
2022/04/23 10:57:57;;;;;;;5.20;2.77;;;;;;;29.44;23.67;100277.28;1716775;83;20922;-59
2022/04/23 11:00:31;;;;;;;2.97;2.00;;;;;;;29.30;23.98;100272.77;1685682;83;21006;-59
2022/04/23 11:02:59;;;;;;;3.73;2.20;;;;;;;29.27;24.24;100271.25;1716333;83;21155;-58
2022/04/23 11:14:28;;;;;;;3.77;1.75;;;;;;;28.34;23.79;100257.83;1717245;83;21136;-62
2022/04/23 11:16:57;;;;;;;4.33;2.73;;;;;;;28.19;24.16;100263.52;1717783;83;21913;-62
2022/04/23 11:19:25;;;;;;;4.17;2.40;;;;;;;28.25;24.00;100250.78;1716694;83;21049;-61
2022/04/23 11:21:52;;;;;;;3.50;2.30;;;;;;;28.03;24.00;100256.31;1690984;83;21977;-60
2022/04/23 11:24:19;;;;;;;2.90;1.70;;;;;;;28.02;24.28;100249.92;1690561;83;20965;-61
2022/04/23 11:26:49;;;;;;;3.77;1.90;;;;;;;28.07;24.34;100247.13;1716907;83;21096;-68
2022/04/23 11:29:17;;;;;;;3.10;2.20;;;;;;;27.96;24.23;100248.44;1716512;83;21134;-67
2022/04/23 11:31:55;;;;;;;3.53;2.20;;;;;;;27.92;24.14;100246.92;1716929;83;21811;-62
2022/04/23 11:34:30;;;;;;;5.28;2.17;;;;;;;27.67;24.91;100248.18;1716809;83;21606;-59
2022/04/23 11:36:58;;;;;;;3.90;2.40;;;;;;;27.33;25.00;100251.22;1716401;83;20914;-66
2022/04/23 11:39:30;;;;;;;4.97;2.70;;;;;;;27.33;25.13;100247.99;1717283;83;21068;-59
2022/04/23 11:41:57;;;;;;;2.83;2.13;;;;;;;27.38;25.47;100247.89;1717535;83;21336;-59
2022/04/23 11:47:17;;;;;;;3.30;1.90;;;;;;;27.76;25.09;100238.38;1716754;83;21002;-61
2022/04/23 11:49:45;;;;;;;4.27;2.30;;;;;;;27.62;25.19;100242.94;1717446;83;21020;-59
2022/04/23 11:52:13;;;;;;;3.67;2.27;;;;;;;27.37;25.63;100244.97;1717221;83;20986;-58
2022/04/23 11:54:48;;;;;;;4.03;2.73;;;;;;;26.91;25.62;100245.73;1717216;83;21155;-69
2022/04/23 11:57:18;;;;;;;3.83;2.33;;;;;;;26.49;25.88;100244.52;1691341;83;21077;-60
2022/04/23 11:59:52;;;;;;;4.20;2.33;;;;;;;26.26;26.11;100236.78;1717631;83;21044;-58
2022/04/23 12:02:24;;;;;;;3.40;1.97;;;;;;;26.36;26.28;100233.41;1717813;83;21088;-68
2022/04/23 12:04:55;;;;;;;6.70;4.43;;;;;;;26.39;26.91;100234.72;1717279;83;21970;-59
2022/04/23 12:07:24;;;;;;;4.37;2.67;;;;;;;26.39;26.85;100232.83;1717435;83;21012;-58
2022/04/23 12:09:56;;;;;;;3.50;2.23;;;;;;;26.68;26.86;100225.24;1717073;83;21036;-58
2022/04/23 12:12:30;;;;;;;3.30;2.10;;;;;;;26.77;26.75;100222.14;1716239;83;21052;-67
2022/04/23 12:15:01;;;;;;;4.57;1.90;;;;;;;26.77;26.76;100224.82;1716721;83;21025;-58